createdAt,value
2023-10-09T00:02:12.800Z,101275.38
2023-10-09T00:04:43.023Z,101280.81
2023-10-09T00:07:10.972Z,101279.41
2023-10-09T00:09:49.734Z,101269.22
2023-10-09T00:12:23.864Z,101270.41
2023-10-09T00:14:51.712Z,101270.88
2023-10-09T00:17:21.049Z,101265.56
2023-10-09T00:19:50.839Z,101267.19
2023-10-09T00:22:30.793Z,101262.34
2023-10-09T00:25:11.759Z,101260.69
2023-10-09T00:27:43.541Z,101252.97
2023-10-09T00:30:16.674Z,101251.34
2023-10-09T00:32:59.596Z,101248.56
2023-10-09T00:35:47.965Z,101241.38
2023-10-09T00:38:23.598Z,101242.38
2023-10-09T00:41:05.356Z,101241.38
2023-10-09T00:43:31.990Z,101249.59
2023-10-09T00:46:24.804Z,101238.16
2023-10-09T00:48:55.333Z,101233.34
2023-10-09T00:51:25.487Z,101221.69
2023-10-09T00:53:59.037Z,101225.47
2023-10-09T00:56:28.375Z,101210.91
2023-10-09T00:59:00.630Z,101210.13
2023-10-09T01:01:37.095Z,101210.91
2023-10-09T01:04:11.568Z,101199.78
2023-10-09T01:06:45.900Z,101190.31
2023-10-09T01:09:15.007Z,101196.38
2023-10-09T01:12:14.491Z,101184.50
2023-10-09T01:14:43.950Z,101186.31
2023-10-09T01:17:10.543Z,101197.84
2023-10-09T01:19:37.355Z,101198.72
2023-10-09T01:22:13.739Z,101202.72
2023-10-09T01:24:41.174Z,101194.25
2023-10-09T01:27:16.626Z,101205.53
2023-10-09T01:29:44.886Z,101206.16
2023-10-09T01:32:18.010Z,101205.75
2023-10-09T01:34:44.944Z,101209.25
2023-10-09T01:37:19.582Z,101197.19
2023-10-09T01:39:49.045Z,101191.44
2023-10-09T01:42:26.095Z,101194.28
2023-10-09T01:44:53.152Z,101198.63
2023-10-09T01:47:20.072Z,101189.59
2023-10-09T01:49:50.027Z,101201.94
2023-10-09T01:52:17.509Z,101202.22
2023-10-09T01:54:51.499Z,101209.25
2023-10-09T01:57:23.675Z,101199.34
2023-10-09T01:59:51.185Z,101187.72
2023-10-09T02:02:27.821Z,101197.78
2023-10-09T02:04:55.795Z,101195.69
2023-10-09T02:07:24.468Z,101192.81
2023-10-09T02:09:51.013Z,101185.25
2023-10-09T02:12:18.775Z,101179.66
2023-10-09T02:14:45.344Z,101168.03
2023-10-09T02:17:21.437Z,101182.91
2023-10-09T02:19:50.834Z,101184.78
2023-10-09T02:22:18.313Z,101193.47
2023-10-09T02:24:49.060Z,101188.81
2023-10-09T02:27:38.254Z,101182.50
2023-10-09T02:30:20.897Z,101174.22
2023-10-09T02:32:53.030Z,101159.41
2023-10-09T02:35:29.326Z,101158.28
2023-10-09T02:37:59.024Z,101153.13
2023-10-09T02:40:41.025Z,101155.03
2023-10-09T02:43:13.519Z,101164.56
2023-10-09T02:45:51.177Z,101161.44
2023-10-09T02:48:21.002Z,101166.09
2023-10-09T02:50:47.935Z,101163.22
2023-10-09T02:53:20.045Z,101166.91
2023-10-09T02:56:05.040Z,101145.22
2023-10-09T02:58:33.467Z,101143.25
2023-10-09T03:01:00.772Z,101152.22
2023-10-09T03:03:28.166Z,101143.56
2023-10-09T03:05:54.768Z,101134.69
2023-10-09T03:08:21.532Z,101140.97
2023-10-09T03:10:49.020Z,101140.16
2023-10-09T03:13:20.299Z,101136.66
2023-10-09T03:15:49.345Z,101146.28
2023-10-09T03:18:15.880Z,101129.00
2023-10-09T03:20:43.603Z,101133.31
2023-10-09T03:23:10.848Z,101125.59
2023-10-09T03:25:38.823Z,101120.88
2023-10-09T03:28:05.596Z,101117.47
2023-10-09T03:30:33.690Z,101109.72
2023-10-09T03:33:01.855Z,101107.03
2023-10-09T03:35:28.572Z,101105.22
2023-10-09T03:38:18.771Z,101111.34
2023-10-09T03:40:45.655Z,101109.63
2023-10-09T03:43:12.603Z,101112.53
2023-10-09T03:45:46.293Z,101103.84
2023-10-09T03:48:33.068Z,101098.06
2023-10-09T03:51:14.338Z,101095.13
2023-10-09T03:53:40.863Z,101092.53
2023-10-09T03:56:14.417Z,101094.56
2023-10-09T03:58:43.992Z,101082.63
2023-10-09T04:01:17.991Z,101079.09
2023-10-09T04:03:45.765Z,101077.13
2023-10-09T04:06:12.459Z,101078.75
2023-10-09T04:08:45.633Z,101084.16
2023-10-09T04:11:17.213Z,101083.88
2023-10-09T04:13:47.013Z,101078.66
2023-10-09T04:16:28.571Z,101075.69
2023-10-09T04:18:58.474Z,101073.16
2023-10-09T04:21:37.662Z,101069.13
2023-10-09T04:24:25.936Z,101071.66
2023-10-09T04:26:57.287Z,101087.78
2023-10-09T04:29:28.092Z,101078.66
2023-10-09T04:32:01.077Z,101071.72
2023-10-09T04:34:35.897Z,101075.03
2023-10-09T04:37:18.141Z,101061.44
2023-10-09T04:40:01.920Z,101065.88
2023-10-09T04:42:37.692Z,101066.50
2023-10-09T04:45:07.837Z,101078.69
2023-10-09T04:47:39.551Z,101071.72
2023-10-09T04:50:11.074Z,101066.88
2023-10-09T04:52:37.994Z,101070.13
2023-10-09T04:55:07.741Z,101078.13
2023-10-09T04:57:44.499Z,101081.63
2023-10-09T05:00:43.764Z,101082.16
2023-10-09T05:03:26.010Z,101083.78
2023-10-09T05:05:59.862Z,101075.75
2023-10-09T05:08:31.097Z,101069.91
2023-10-09T05:10:59.417Z,101067.38
2023-10-09T05:13:43.118Z,101067.94
2023-10-09T05:16:29.768Z,101071.00
2023-10-09T05:18:58.292Z,101066.56
2023-10-09T05:21:44.709Z,101074.06
2023-10-09T05:24:15.822Z,101087.81
2023-10-09T05:26:49.599Z,101088.47
2023-10-09T05:29:30.050Z,101109.28
2023-10-09T05:32:16.925Z,101107.19
2023-10-09T05:35:02.106Z,101101.84
2023-10-09T05:37:34.128Z,101117.84
2023-10-09T05:40:01.437Z,101124.56
2023-10-09T05:42:43.810Z,101110.41
2023-10-09T05:45:18.244Z,101125.91
2023-10-09T05:48:04.825Z,101135.88
2023-10-09T05:50:35.172Z,101119.88
2023-10-09T05:53:03.026Z,101120.13
2023-10-09T05:55:48.585Z,101118.69
2023-10-09T05:58:33.753Z,101114.88
2023-10-09T06:01:18.703Z,101132.00
2023-10-09T06:04:11.474Z,101140.75
2023-10-09T06:06:45.841Z,101147.59
2023-10-09T06:09:16.490Z,101134.09
2023-10-09T06:11:51.040Z,101147.31
2023-10-09T06:14:47.258Z,101150.03
2023-10-09T06:17:16.632Z,101149.84
2023-10-09T06:19:45.941Z,101151.13
2023-10-09T06:22:31.036Z,101153.91
2023-10-09T06:24:58.539Z,101160.38
2023-10-09T06:27:31.191Z,101166.41
2023-10-09T06:30:17.671Z,101164.88
2023-10-09T06:33:05.736Z,101170.66
2023-10-09T06:35:36.992Z,101165.94
2023-10-09T06:38:03.688Z,101166.50
2023-10-09T06:40:37.866Z,101164.59
2023-10-09T06:43:10.905Z,101167.31
2023-10-09T06:45:46.663Z,101161.34
2023-10-09T06:48:32.735Z,101165.13
2023-10-09T06:51:22.252Z,101166.94
2023-10-09T06:53:54.638Z,101172.00
2023-10-09T06:56:30.072Z,101164.16
2023-10-09T06:59:05.175Z,101151.34
2023-10-09T07:01:43.904Z,101167.75
2023-10-09T07:04:21.264Z,101154.13
2023-10-09T07:06:52.303Z,101152.84
2023-10-09T07:09:22.575Z,101147.69
2023-10-09T07:11:52.995Z,101158.75
2023-10-09T07:14:36.533Z,101158.34
2023-10-09T07:17:16.766Z,101159.69
2023-10-09T07:19:48.770Z,101165.94
2023-10-09T07:22:18.034Z,101175.00
2023-10-09T07:24:44.619Z,101189.47
2023-10-09T07:27:15.153Z,101193.78
2023-10-09T07:30:00.330Z,101205.84
2023-10-09T07:32:28.647Z,101211.25
2023-10-09T07:34:55.198Z,101210.16
2023-10-09T07:37:23.923Z,101199.69
2023-10-09T07:39:59.442Z,101188.84
2023-10-09T07:42:36.030Z,101193.53
2023-10-09T07:45:14.019Z,101163.53
2023-10-09T07:47:59.134Z,101134.84
2023-10-09T07:50:29.522Z,101124.72
2023-10-09T07:53:15.820Z,101131.13
2023-10-09T07:55:50.070Z,101158.38
2023-10-09T07:58:17.218Z,101167.91
2023-10-09T08:01:02.474Z,101163.59
2023-10-09T08:03:33.978Z,101171.69
2023-10-09T08:06:20.236Z,101159.16
2023-10-09T08:09:05.167Z,101173.84
2023-10-09T08:11:52.473Z,101166.84
2023-10-09T08:14:34.026Z,101183.59
2023-10-09T08:17:21.960Z,101176.75
2023-10-09T08:19:55.456Z,101186.72
2023-10-09T08:22:25.761Z,101194.91
2023-10-09T08:24:59.048Z,101184.03
2023-10-09T08:27:32.507Z,101200.78
2023-10-09T08:30:18.930Z,101207.97
2023-10-09T08:35:34.335Z,101225.94
2023-10-09T08:38:04.675Z,101225.78
2023-10-09T08:40:34.317Z,101226.59
2023-10-09T08:43:11.431Z,101234.53
2023-10-09T08:45:41.721Z,101220.22
2023-10-09T08:48:11.819Z,101212.56
2023-10-09T08:50:40.426Z,101207.81
2023-10-09T08:53:06.954Z,101203.88
2023-10-09T08:55:33.432Z,101215.06
2023-10-09T08:58:01.145Z,101204.72
2023-10-09T09:00:34.313Z,101189.13
2023-10-09T09:03:01.527Z,101176.03
2023-10-09T09:05:30.870Z,101171.03
2023-10-09T09:08:00.512Z,101159.59
2023-10-09T09:10:36.735Z,101133.25
2023-10-09T09:13:04.817Z,101127.63
2023-10-09T09:15:31.866Z,101099.34
2023-10-09T09:18:11.808Z,101082.31
2023-10-09T09:20:41.267Z,101055.69
2023-10-09T09:23:13.320Z,101058.53
2023-10-09T09:25:49.144Z,101064.50
2023-10-09T09:28:22.633Z,101058.34
2023-10-09T09:30:52.105Z,101057.31
2023-10-09T09:33:31.669Z,101059.47
2023-10-09T09:36:06.153Z,101077.75
2023-10-09T09:38:48.612Z,101094.56
2023-10-09T09:41:24.602Z,101082.56
2023-10-09T09:44:01.275Z,101081.38
2023-10-09T09:46:35.325Z,101070.31
2023-10-09T09:49:02.940Z,101075.97
2023-10-09T09:51:33.219Z,101085.72
2023-10-09T09:53:59.680Z,101097.44
2023-10-09T09:56:26.875Z,101115.13
2023-10-09T09:58:57.770Z,101124.31
2023-10-09T10:01:27.769Z,101137.00
2023-10-09T10:04:02.213Z,101140.03
2023-10-09T10:06:30.273Z,101146.72
2023-10-09T10:08:56.843Z,101163.56
2023-10-09T10:11:55.414Z,101163.41
2023-10-09T10:14:32.357Z,101158.84
2023-10-09T10:17:22.621Z,101163.06
2023-10-09T10:20:00.986Z,101150.38
2023-10-09T10:22:31.370Z,101150.44
2023-10-09T10:25:10.494Z,101149.50
2023-10-09T10:28:01.706Z,101143.38
2023-10-09T10:30:34.246Z,101137.78
2023-10-09T10:33:15.115Z,101136.91
2023-10-09T10:35:44.421Z,101135.25
2023-10-09T10:38:24.804Z,101137.81
2023-10-09T10:40:58.312Z,101145.59
2023-10-09T10:43:48.688Z,101149.50
2023-10-09T10:46:30.960Z,101144.25
2023-10-09T10:49:00.622Z,101143.28
2023-10-09T10:51:36.303Z,101148.44
2023-10-09T10:54:23.072Z,101156.97
2023-10-09T10:56:49.893Z,101152.63
2023-10-09T10:59:24.031Z,101148.28
2023-10-09T11:02:20.312Z,101140.00
2023-10-09T11:04:54.612Z,101134.44
2023-10-09T11:07:25.577Z,101147.69
2023-10-09T11:10:01.802Z,101153.38
2023-10-09T11:12:39.030Z,101162.16
2023-10-09T11:15:07.936Z,101174.41
2023-10-09T11:17:36.473Z,101173.97
2023-10-09T11:20:23.930Z,101170.09
2023-10-09T11:23:11.920Z,101175.03
2023-10-09T11:25:50.789Z,101173.38
2023-10-09T11:28:39.887Z,101172.78
2023-10-09T11:31:12.498Z,101171.19
2023-10-09T11:33:52.402Z,101173.31
2023-10-09T11:36:32.181Z,101175.00
2023-10-09T11:39:14.626Z,101172.75
2023-10-09T11:41:45.322Z,101174.78
2023-10-09T11:44:24.706Z,101170.38
2023-10-09T11:47:23.727Z,101172.91
2023-10-09T11:50:19.985Z,101172.03
2023-10-09T11:53:10.019Z,101164.50
2023-10-09T11:55:37.646Z,101155.88
2023-10-09T11:58:05.460Z,101148.53
2023-10-09T12:00:45.443Z,101153.50
2023-10-09T12:03:12.082Z,101155.94
2023-10-09T12:05:38.832Z,101158.69
2023-10-09T12:08:09.510Z,101161.72
2023-10-09T12:10:39.240Z,101155.22
2023-10-09T12:13:07.498Z,101157.31
2023-10-09T12:15:40.555Z,101163.88
2023-10-09T12:18:12.926Z,101163.06
2023-10-09T12:20:40.182Z,101162.34
2023-10-09T12:23:07.093Z,101163.88
2023-10-09T12:25:36.079Z,101152.69
2023-10-09T12:28:03.722Z,101154.50
2023-10-09T12:30:30.928Z,101160.44
2023-10-09T12:32:58.759Z,101166.38
2023-10-09T12:35:26.264Z,101167.75
2023-10-09T12:37:55.678Z,101162.88
2023-10-09T12:40:30.076Z,101166.63
2023-10-09T12:42:56.977Z,101169.88
2023-10-09T12:45:27.017Z,101168.00
2023-10-09T12:48:10.759Z,101169.09
2023-10-09T12:50:42.744Z,101172.69
2023-10-09T12:53:09.645Z,101169.06
2023-10-09T12:55:39.020Z,101164.38
2023-10-09T12:58:08.498Z,101167.31
2023-10-09T13:00:40.478Z,101173.38
2023-10-09T13:03:17.624Z,101167.63
2023-10-09T13:05:53.253Z,101175.75
2023-10-09T13:08:33.005Z,101171.72
2023-10-09T13:11:11.569Z,101179.75
2023-10-09T13:13:51.634Z,101179.00
2023-10-09T13:16:25.783Z,101183.63
2023-10-09T13:19:00.663Z,101169.81
2023-10-09T13:21:32.759Z,101150.63
2023-10-09T13:24:01.238Z,101147.09
2023-10-09T13:26:36.820Z,101137.50
2023-10-09T13:29:04.301Z,101142.88
2023-10-09T13:31:35.131Z,101143.84
2023-10-09T13:34:03.955Z,101138.03
2023-10-09T13:36:34.639Z,101140.25
2023-10-09T13:39:20.727Z,101135.13
2023-10-09T13:41:47.906Z,101134.44
2023-10-09T13:44:15.119Z,101140.38
2023-10-09T13:46:45.332Z,101142.63
2023-10-09T13:49:15.278Z,101139.00
2023-10-09T13:51:45.576Z,101145.38
2023-10-09T13:54:21.695Z,101151.44
2023-10-09T13:56:53.987Z,101147.09
2023-10-09T13:59:26.202Z,101133.47
2023-10-09T14:01:56.575Z,101137.19
2023-10-09T14:04:24.324Z,101141.97
2023-10-09T14:06:57.956Z,101141.13
2023-10-09T14:09:39.290Z,101143.28
2023-10-09T14:12:07.749Z,101133.50
2023-10-09T14:14:51.040Z,101135.69
2023-10-09T14:17:29.954Z,101137.97
2023-10-09T14:20:18.168Z,101139.81
2023-10-09T14:22:46.530Z,101141.31
2023-10-09T14:25:16.295Z,101138.44
2023-10-09T14:27:42.871Z,101133.53
2023-10-09T14:30:19.890Z,101141.44
2023-10-09T14:32:52.465Z,101148.69
2023-10-09T14:35:22.633Z,101144.50
2023-10-09T14:37:49.214Z,101136.94
2023-10-09T14:40:21.742Z,101143.16
2023-10-09T14:42:48.254Z,101135.63
2023-10-09T14:45:17.191Z,101141.91
2023-10-09T14:47:43.897Z,101139.56
2023-10-09T14:50:14.446Z,101139.63
2023-10-09T14:52:41.606Z,101142.25
2023-10-09T14:55:08.954Z,101138.66
2023-10-09T14:57:35.439Z,101146.59
2023-10-09T15:00:08.693Z,101137.22
2023-10-09T15:02:35.245Z,101142.47
2023-10-09T15:05:01.794Z,101144.34
2023-10-09T15:07:40.225Z,101136.25
2023-10-09T15:10:10.353Z,101127.28
2023-10-09T15:12:40.942Z,101132.94
2023-10-09T15:15:26.852Z,101126.66
2023-10-09T15:17:53.375Z,101134.88
2023-10-09T15:20:21.873Z,101133.06
2023-10-09T15:22:48.649Z,101124.09
2023-10-09T15:25:16.074Z,101141.56
2023-10-09T15:27:43.981Z,101146.16
2023-10-09T15:30:14.605Z,101145.00
2023-10-09T15:32:44.524Z,101146.59
2023-10-09T15:35:13.681Z,101154.88
2023-10-09T15:37:42.186Z,101150.47
2023-10-09T15:40:15.345Z,101145.22
2023-10-09T15:42:43.775Z,101154.63
2023-10-09T15:45:10.640Z,101155.78
2023-10-09T15:47:37.789Z,101156.13
2023-10-09T15:50:04.616Z,101150.78
2023-10-09T15:52:31.141Z,101146.66
2023-10-09T15:54:58.209Z,101151.31
2023-10-09T15:57:24.648Z,101156.34
2023-10-09T15:59:51.621Z,101157.63
2023-10-09T16:02:18.424Z,101151.22
2023-10-09T16:04:45.971Z,101152.44
2023-10-09T16:07:12.649Z,101149.44
2023-10-09T16:09:40.137Z,101151.22
2023-10-09T16:12:07.481Z,101151.63
2023-10-09T16:14:35.640Z,101159.56
2023-10-09T16:17:03.237Z,101154.06
2023-10-09T16:19:33.912Z,101160.44
2023-10-09T16:22:04.878Z,101155.19
2023-10-09T16:24:39.342Z,101159.94
2023-10-09T16:27:09.063Z,101161.69
2023-10-09T16:29:35.897Z,101160.25
2023-10-09T16:32:02.491Z,101166.94
2023-10-09T16:34:30.316Z,101166.38
2023-10-09T16:36:56.841Z,101171.31
2023-10-09T16:39:23.856Z,101167.38
2023-10-09T16:41:50.628Z,101167.56
2023-10-09T16:44:20.594Z,101177.94
2023-10-09T16:46:47.529Z,101174.56
2023-10-09T16:49:19.779Z,101166.84
2023-10-09T16:51:47.447Z,101163.88
2023-10-09T16:54:16.521Z,101165.50
2023-10-09T16:56:45.918Z,101167.81
2023-10-09T16:59:15.809Z,101179.41
2023-10-09T17:01:43.355Z,101188.56
2023-10-09T17:04:17.857Z,101186.00
2023-10-09T17:06:45.361Z,101186.00
2023-10-09T17:09:13.527Z,101184.31
2023-10-09T17:11:41.965Z,101184.19
2023-10-09T17:14:14.028Z,101185.06
2023-10-09T17:16:46.197Z,101192.75
2023-10-09T17:19:15.132Z,101189.63
2023-10-09T17:21:42.050Z,101198.78
2023-10-09T17:24:11.876Z,101201.75
2023-10-09T17:26:39.854Z,101204.03
2023-10-09T17:29:06.724Z,101200.28
2023-10-09T17:31:35.588Z,101203.84
2023-10-09T17:34:03.488Z,101205.06
2023-10-09T17:36:30.170Z,101209.09
2023-10-09T17:39:01.209Z,101208.81
2023-10-09T17:41:31.687Z,101214.66
2023-10-09T17:44:02.092Z,101223.63
2023-10-09T17:46:30.043Z,101224.84
2023-10-09T17:48:57.475Z,101227.78
2023-10-09T17:51:24.088Z,101228.53
2023-10-09T17:53:50.660Z,101231.88
2023-10-09T17:56:20.173Z,101231.81
2023-10-09T17:58:51.323Z,101228.59
2023-10-09T18:01:18.548Z,101231.75
2023-10-09T18:03:45.946Z,101233.63
2023-10-09T18:06:17.920Z,101232.16
2023-10-09T18:08:44.787Z,101233.53
2023-10-09T18:11:15.180Z,101231.44
2023-10-09T18:13:41.994Z,101240.09
2023-10-09T18:16:10.825Z,101222.97
2023-10-09T18:18:37.642Z,101225.50
2023-10-09T18:21:10.751Z,101233.59
2023-10-09T18:23:38.320Z,101227.22
2023-10-09T18:26:06.978Z,101237.09
2023-10-09T18:28:37.498Z,101235.78
2023-10-09T18:31:06.878Z,101239.56
2023-10-09T18:33:34.174Z,101243.41
2023-10-09T18:36:08.480Z,101244.94
2023-10-09T18:38:34.910Z,101246.34
2023-10-09T18:41:06.481Z,101242.19
2023-10-09T18:43:33.351Z,101248.31
2023-10-09T18:46:04.322Z,101255.63
2023-10-09T18:48:30.760Z,101251.03
2023-10-09T18:50:58.365Z,101244.06
2023-10-09T18:53:27.346Z,101249.38
2023-10-09T18:55:53.814Z,101246.09
2023-10-09T18:58:20.243Z,101247.69
2023-10-09T19:00:52.733Z,101235.97
2023-10-09T19:03:21.562Z,101241.53
2023-10-09T19:05:48.794Z,101234.47
2023-10-09T19:08:19.043Z,101240.44
2023-10-09T19:10:45.549Z,101240.38
2023-10-09T19:13:12.068Z,101247.00
2023-10-09T19:15:38.571Z,101246.53
2023-10-09T19:18:06.276Z,101246.47
2023-10-09T19:20:33.475Z,101243.84
2023-10-09T19:23:00.451Z,101249.38
2023-10-09T19:25:33.867Z,101254.31
2023-10-09T19:28:00.722Z,101257.56
2023-10-09T19:30:29.826Z,101264.53
2023-10-09T19:32:56.649Z,101261.50
2023-10-09T19:35:24.114Z,101262.81
2023-10-09T19:37:54.911Z,101255.69
2023-10-09T19:40:22.688Z,101246.38
2023-10-09T19:42:49.140Z,101247.28
2023-10-09T19:45:23.420Z,101234.00
2023-10-09T19:47:50.436Z,101250.59
2023-10-09T19:50:17.227Z,101249.72
2023-10-09T19:52:46.107Z,101253.31
2023-10-09T19:55:13.237Z,101257.31
2023-10-09T19:57:40.125Z,101257.91
2023-10-09T20:00:11.714Z,101250.53
2023-10-09T20:02:39.805Z,101250.38
2023-10-09T20:05:07.234Z,101257.00
2023-10-09T20:07:34.106Z,101257.47
2023-10-09T20:10:02.514Z,101267.72
2023-10-09T20:12:30.932Z,101278.09
2023-10-09T20:14:57.979Z,101270.91
2023-10-09T20:17:25.372Z,101276.88
2023-10-09T20:19:54.029Z,101286.09
2023-10-09T20:22:21.256Z,101280.44
2023-10-09T20:24:47.761Z,101284.00
2023-10-09T20:27:18.770Z,101289.97
2023-10-09T20:29:47.480Z,101296.81
2023-10-09T20:32:17.128Z,101294.94
2023-10-09T20:34:45.094Z,101300.97
2023-10-09T20:37:13.449Z,101303.19
2023-10-09T20:39:41.804Z,101309.72
2023-10-09T20:42:08.273Z,101306.06
2023-10-09T20:44:36.423Z,101306.31
2023-10-09T20:47:04.098Z,101310.72
2023-10-09T20:49:32.822Z,101311.53
2023-10-09T20:51:59.394Z,101305.22
2023-10-09T20:54:26.428Z,101310.09
2023-10-09T20:56:53.005Z,101301.81
2023-10-09T20:59:19.774Z,101311.19
2023-10-09T21:01:46.598Z,101307.44
2023-10-09T21:04:13.275Z,101316.91
2023-10-09T21:06:39.809Z,101316.38
2023-10-09T21:09:08.122Z,101326.03
2023-10-09T21:11:34.829Z,101322.25
2023-10-09T21:14:01.396Z,101324.16
2023-10-09T21:16:27.955Z,101325.88
2023-10-09T21:18:56.835Z,101322.78
2023-10-09T21:21:24.617Z,101324.75
2023-10-09T21:23:51.096Z,101319.19
2023-10-09T21:26:23.366Z,101316.38
2023-10-09T21:28:51.815Z,101319.13
2023-10-09T21:31:19.550Z,101323.09
2023-10-09T21:33:47.983Z,101317.66
2023-10-09T21:36:14.967Z,101327.69
2023-10-09T21:38:42.080Z,101320.38
2023-10-09T21:41:17.863Z,101319.72
2023-10-09T21:43:45.743Z,101319.38
2023-10-09T21:46:13.215Z,101321.94
2023-10-09T21:48:39.741Z,101316.25
2023-10-09T21:51:10.126Z,101314.06
2023-10-09T21:53:37.115Z,101317.03
2023-10-09T21:56:08.552Z,101316.13
2023-10-09T21:58:35.492Z,101320.81
2023-10-09T22:01:08.943Z,101317.75
2023-10-09T22:03:36.972Z,101317.59
2023-10-09T22:06:05.468Z,101325.34
2023-10-09T22:08:34.234Z,101328.13
2023-10-09T22:11:02.727Z,101332.06
2023-10-09T22:13:29.335Z,101328.56
2023-10-09T22:15:55.859Z,101321.44
2023-10-09T22:18:22.398Z,101332.66
2023-10-09T22:20:50.011Z,101329.06
2023-10-09T22:23:20.441Z,101326.28
2023-10-09T22:26:01.330Z,101316.53
2023-10-09T22:28:29.305Z,101318.59
2023-10-09T22:30:57.210Z,101315.41
2023-10-09T22:33:27.015Z,101311.88
2023-10-09T22:35:54.334Z,101319.00
2023-10-09T22:38:22.039Z,101317.09
2023-10-09T22:40:55.183Z,101320.13
2023-10-09T22:43:24.651Z,101312.25
2023-10-09T22:45:52.097Z,101317.41
2023-10-09T22:48:19.929Z,101311.75
2023-10-09T22:50:47.261Z,101320.31
2023-10-09T22:53:24.032Z,101319.22
2023-10-09T22:55:55.113Z,101324.00
2023-10-09T22:58:29.208Z,101328.91
2023-10-09T23:00:59.682Z,101323.84
2023-10-09T23:03:29.891Z,101313.06
2023-10-09T23:06:10.273Z,101327.97
2023-10-09T23:08:37.281Z,101318.75
2023-10-09T23:11:09.904Z,101322.25
2023-10-09T23:13:39.373Z,101328.91
2023-10-09T23:16:09.089Z,101331.84
2023-10-09T23:18:55.867Z,101334.38
2023-10-09T23:21:23.724Z,101326.59
2023-10-09T23:23:51.946Z,101325.88
2023-10-09T23:26:29.451Z,101319.03
2023-10-09T23:28:56.089Z,101329.69
2023-10-09T23:31:47.796Z,101325.34
2023-10-09T23:34:20.645Z,101320.28
2023-10-09T23:36:56.109Z,101324.47
2023-10-09T23:39:53.785Z,101327.00
2023-10-09T23:42:27.292Z,101323.13
2023-10-09T23:44:54.346Z,101322.56
2023-10-09T23:47:27.436Z,101327.72
2023-10-09T23:49:57.417Z,101315.81
2023-10-09T23:52:24.985Z,101319.06
2023-10-09T23:55:01.670Z,101323.28
2023-10-09T23:57:30.023Z,101319.78
